CO35 weather

Denver Health Heliport
Denver, Colorado, United States

Public forecast

Using degrees Fahrenheit for public forecast. Weather courtesy of forecast.io.

METAR (pilot weather report)

Closest report is Buckley Air Force Base, 11.1 nm (20.6 km) E. Retrieved 2019/04/22 18:58 UTC (38 minutes ago):

KBKF 221858Z 05006KT 10SM OVC008 05/05 A3029 RMK AO2A SLP243 T00480047

TAF (pilot weather forecast)

Closest forecast is Buckley Air Force Base, 11.1 nm (20.6 km) E. Retrieved 2019/04/22 17:09 UTC (2 hours ago):

TAF TAF KBKF 221707Z 2217/2323 03009KT 8000 BR OVC004 QNH3021INS TEMPO 2219/2222 VCSH BKN010 BECMG 2221/2222 05009KT 9999 NSW FEW010 BKN025 QNH3022INS BECMG 2303/2304 16006KT 9999 SCT010 BKN030 QNH3015INS BECMG 2314/2315 30009KT 9999 FEW010 QNH3005INS TX08/2221Z TN03/2309Z